Flight Track Log - Related Links

Times and Time Zones

All times are in EDT time to prevent confusion due to time zone crossing. See the SWA558 flight status page for this flight to view local times or setup timezone preferences in your user account.

Time Position Orientation Groundspeed Altitude Reporting Facility
EDT Latitude Longitude Course Direction KTS km/h meters Rate Location/Type
Fri 16:11:04 41.7667 -87.7667 217° Southwest 145 269 701  Level Chicago TRACON
Fri 16:12:37 41.6919 -87.8422 217° Southwest 216 401 2,012 861 Climbing Chicago Center
Fri 16:13:39 41.6408 -87.9028 222° Southwest 243 451 2,926 914 Climbing Chicago Center
Fri 16:14:41 41.5875 -87.9656 221° Southwest 255 472 3,901 929 Climbing Chicago Center
Fri 16:15:43 41.5303 -88.0308 221° Southwest 271 502 4,846 678 Climbing Chicago Center
Fri 16:16:45 41.4642 -88.1064 221° Southwest 329 610 5,304 767 Climbing Chicago Center
Fri 16:17:47 41.3739 -88.1936 216° Southwest 352 652 6,431 870 Climbing Chicago Center
Fri 16:18:49 41.2781 -88.2369 199° South 369 684 7,102 708 Climbing Chicago Center
Fri 16:19:51 41.1822 -88.2808 199° South 370 686 7,894 605 Climbing Chicago Center
Fri 16:20:53 41.0850 -88.3253 199° South 370 686 8,352 487 Climbing Chicago Center
Fri 16:21:55 40.9581 -88.3831 199° South 397 735 8,900 531 Climbing Chicago Center
Fri 16:22:57 40.8514 -88.4311 199° South 407 753 9,449 561 Climbing Chicago Center
Fri 16:23:59 40.7461 -88.4769 198° South 401 742 10,058 501 Climbing Chicago Center
Fri 16:25:01 40.6428 -88.5228 199° South 393 727 10,485 295 Climbing Chicago Center
Fri 16:26:03 40.5556 -88.6078 217° Southwest 394 729 10,668 310 Climbing Chicago Center
Fri 16:27:05 40.4544 -88.7269 222° Southwest 406 752 11,125 398 Climbing Chicago Center
Fri 16:28:07 40.3844 -88.8053 220° Southwest 394 729 11,491 221 Climbing Chicago Center
Fri 16:29:09 40.3028 -88.8978 221° Southwest 388 719 11,582 44 Climbing Chicago Center
Fri 16:30:11 40.2033 -89.0097 221° Southwest 392 726 11,582  Level Chicago Center
Fri 16:31:13 40.1186 -89.1044 221° Southwest 397 735 11,582  Level Chicago Center
Fri 16:32:12 40.0331 -89.1983 220° Southwest 396 734 11,582  Level Kansas City Center
Fri 16:33:15 39.9500 -89.2933 221° Southwest 396 734 11,582  Level Kansas City Center
Fri 16:34:15 39.8675 -89.3917 222° Southwest 398 737 11,582  Level Kansas City Center
Fri 16:35:19 39.7861 -89.4906 223° Southwest 399 739 11,582  Level Kansas City Center
Fri 16:36:20 39.7075 -89.5825 222° Southwest 398 737 11,582  Level Kansas City Center
Fri 16:37:24 39.6081 -89.6972 222° Southwest 398 737 11,582  Level Kansas City Center
Fri 16:38:24 39.5261 -89.7947 223° Southwest 399 739 11,582  Level Kansas City Center
Fri 16:39:26 39.4439 -89.8908 222° Southwest 400 740 11,582  Level Kansas City Center
Fri 16:40:29 39.3611 -89.9881 222° Southwest 401 742 11,582  Level Kansas City Center
Fri 16:41:31 39.2778 -90.0833 222° Southwest 402 745 11,582  Level Kansas City Center
Fri 16:42:34 39.1933 -90.1811 222° Southwest 406 752 11,582  Level Kansas City Center
Fri 16:43:35 39.0936 -90.2975 222° Southwest 406 752 11,582  Level Kansas City Center
Fri 16:44:36 39.0106 -90.3925 222° Southwest 404 748 11,582  Level Kansas City Center
Fri 16:45:40 38.9200 -90.4953 221° Southwest 400 740 11,582  Level Kansas City Center
Fri 16:46:41 38.8364 -90.5900 221° Southwest 397 735 11,582  Level Kansas City Center
Fri 16:47:42 38.7492 -90.6883 221° Southwest 394 729 11,582  Level Kansas City Center
Fri 16:48:46 38.6683 -90.7803 222° Southwest 392 726 11,582  Level Kansas City Center
Fri 16:49:46 38.5867 -90.8722 221° Southwest 393 727 11,582  Level Kansas City Center
Fri 16:50:50 38.5056 -90.9639 222° Southwest 391 724 11,582  Level Kansas City Center
Fri 16:51:51 38.4242 -91.0556 221° Southwest 391 724 11,582  Level Kansas City Center
Fri 16:52:54 38.3272 -91.1639 221° Southwest 389 721 11,582  Level Kansas City Center
Fri 16:53:55 38.2464 -91.2533 221° Southwest 388 719 11,582  Level Kansas City Center
Fri 16:54:59 38.1664 -91.3419 221° Southwest 386 715 11,582  Level Kansas City Center
Fri 16:55:59 38.0844 -91.4325 221° Southwest 382 708 11,582  Level Kansas City Center
Fri 16:57:00 38.0011 -91.5242 221° Southwest 390 723 11,582  Level Kansas City Center
Fri 16:58:04 37.9194 -91.6131 221° Southwest 387 716 11,582  Level Kansas City Center
Fri 16:59:07 37.8394 -91.7019 221° Southwest 382 708 11,582  Level Kansas City Center
Fri 17:00:08 37.7417 -91.8108 221° Southwest 385 713 11,582  Level Kansas City Center
Fri 17:01:12 37.6597 -91.8994 221° Southwest 383 710 11,582  Level Kansas City Center
Fri 17:02:13 37.5789 -91.9889 221° Southwest 383 710 11,582  Level Kansas City Center
Fri 17:03:14 37.4967 -92.0775 221° Southwest 384 711 11,582  Level Kansas City Center
Fri 17:04:18 37.4142 -92.1661 220° Southwest 384 711 11,582  Level Kansas City Center
Fri 17:05:18 37.3317 -92.2539 220° Southwest 385 713 11,582  Level Kansas City Center
Fri 17:06:22 37.2508 -92.3406 220° Southwest 382 708 11,582  Level Kansas City Center
Fri 17:07:23 37.1700 -92.4275 221° Southwest 381 705 11,582  Level Kansas City Center
Fri 17:08:24 37.0733 -92.5306 220° Southwest 378 700 11,582  Level Kansas City Center
Fri 17:09:27 36.9922 -92.6156 220° Southwest 379 702 11,582  Level Kansas City Center
Fri 17:10:29 36.9097 -92.7017 220° Southwest 382 708 11,582  Level Kansas City Center
Fri 17:11:17 36.8481 -92.7733 223° Southwest 381 705 11,582  Level Memphis Center
Fri 17:12:17 36.7589 -92.8639 219° Southwest 381 705 11,582  Level Memphis Center
Fri 17:13:17 36.6758 -92.9544 221° Southwest 386 715 11,582  Level Memphis Center
Fri 17:14:17 36.5947 -93.0369 219° Southwest 386 715 11,582  Level Memphis Center
Fri 17:15:17 36.5114 -93.1272 221° Southwest 386 715 11,582  Level Memphis Center
Fri 17:16:17 36.4347 -93.2019 218° Southwest 386 715 11,582  Level Memphis Center
Fri 17:17:17 36.3494 -93.2919 220° Southwest 391 724 11,582  Level Memphis Center
Fri 17:18:17 36.2658 -93.3789 220° Southwest 391 724 11,582  Level Memphis Center
Fri 17:19:17 36.1825 -93.4658 220° Southwest 391 724 11,582  Level Memphis Center
Fri 17:20:17 36.0969 -93.5500 218° Southwest 391 724 11,582  Level Memphis Center
Fri 17:21:17 36.0028 -93.6464 220° Southwest 396 734 11,582  Level Memphis Center
Fri 17:22:17 35.9192 -93.7328 220° Southwest 396 734 11,582  Level Memphis Center
Fri 17:23:17 35.8353 -93.8189 220° Southwest 396 734 11,582  Level Memphis Center
Fri 17:24:17 35.7494 -93.9047 219° Southwest 396 734 11,582  Level Memphis Center
Fri 17:25:17 35.6658 -93.9906 220° Southwest 396 734 11,582  Level Memphis Center
Fri 17:26:17 35.5819 -94.0739 219° Southwest 396 734 11,582  Level Memphis Center
Fri 17:27:17 35.5003 -94.1569 220° Southwest 391 724 11,582  Level Memphis Center
Fri 17:28:17 35.4142 -94.2419 219° Southwest 391 724 11,582  Level Memphis Center
Fri 17:29:17 35.3283 -94.3169 215° Southwest 391 724 11,582  Level Memphis Center
Fri 17:31:39 35.1175 -94.4819 213° Southwest 392 726 11,582  Level Fort Worth Center
Fri 17:32:39 35.0253 -94.5511 212° Southwest 398 737 11,582  Level Fort Worth Center
Fri 17:33:39 34.9331 -94.6225 212° Southwest 393 727 11,582  Level Fort Worth Center
Fri 17:34:39 34.8408 -94.6914 212° Southwest 393 727 11,582  Level Fort Worth Center
Fri 17:35:39 34.7483 -94.7625 212° Southwest 393 727 11,582  Level Fort Worth Center
Fri 17:36:39 34.6539 -94.8336 212° Southwest 398 737 11,582  Level Fort Worth Center
Fri 17:37:39 34.5614 -94.9019 211° Southwest 398 737 11,582  Level Fort Worth Center
Fri 17:38:40 34.4647 -94.9753 212° Southwest 398 737 11,582  Level Fort Worth Center
Fri 17:39:39 34.3742 -95.0433 212° Southwest 398 737 11,582  Level Fort Worth Center
Fri 17:40:39 34.2794 -95.1114 211° Southwest 398 737 11,582  Level Fort Worth Center
Fri 17:41:39 34.1869 -95.1814 212° Southwest 398 737 11,582  Level Fort Worth Center
Fri 17:42:39 34.0964 -95.2489 212° Southwest 393 727 11,582  Level Fort Worth Center
Fri 17:43:39 34.0014 -95.3189 211° Southwest 393 727 11,582  Level Fort Worth Center
Fri 17:44:39 33.9086 -95.3889 212° Southwest 393 727 11,582  Level Fort Worth Center
Fri 17:45:39 33.8181 -95.4533 211° Southwest 393 727 11,582  Level Fort Worth Center
Fri 17:46:39 33.7272 -95.5203 212° Southwest 393 727 11,582  Level Fort Worth Center
Fri 17:47:39 33.6322 -95.5922 212° Southwest 380 703 11,582  Level Fort Worth Center
Fri 17:48:39 33.5392 -95.6589 211° Southwest 380 703 11,582  Level Fort Worth Center
Fri 17:49:40 33.4503 -95.7256 212° Southwest 385 713 11,582  Level Fort Worth Center
Fri 17:50:39 33.3656 -95.7819 209° Southwest 385 713 11,582  Level Fort Worth Center
Fri 17:51:39 33.2725 -95.8481 211° Southwest 385 713 11,582  Level Fort Worth Center
Fri 17:52:39 33.1814 -95.9142 211° Southwest 385 713 11,582  Level Fort Worth Center
Fri 17:53:39 33.0883 -95.9828 212° Southwest 390 723 11,582  Level Fort Worth Center
Fri 17:54:39 32.9950 -96.0486 211° Southwest 390 723 11,582  Level Fort Worth Center
Fri 17:55:39 32.9019 -96.1169 212° Southwest 396 734 11,582  Level Fort Worth Center
Fri 17:56:39 32.7983 -96.1900 211° Southwest 396 734 11,582  Level Fort Worth Center
Fri 17:57:39 32.7050 -96.2581 212° Southwest 396 734 11,582  Level Fort Worth Center
Fri 17:58:39 32.6136 -96.3233 211° Southwest 396 734 11,582  Level Fort Worth Center
Fri 17:59:39 32.5181 -96.3908 211° Southwest 396 734 11,582  Level Fort Worth Center
Fri 18:00:39 32.4247 -96.4536 210° Southwest 396 734 11,582  Level Fort Worth Center
Fri 18:01:39 32.3333 -96.5208 212° Southwest 396 734 11,582  Level Fort Worth Center
Fri 18:02:39 32.2378 -96.5881 211° Southwest 396 734 11,582  Level Fort Worth Center
Fri 18:03:39 32.1547 -96.6478 211° Southwest 396 734 11,582 -168 Level Fort Worth Center
Fri 18:04:39 32.0569 -96.7050 206° Southwest 396 734 11,247 -305 Descending Fort Worth Center
Fri 18:05:39 31.9611 -96.7644 208° Southwest 396 734 10,973 -290 Descending Fort Worth Center
Fri 18:06:39 31.8444 -96.8019 195° South 390 723 10,668 -305 Descending Fort Worth Center
Fri 18:07:39 31.7211 -96.7833 173° South 410 760 10,363 -396 Descending Fort Worth Center
Fri 18:08:39 31.6022 -96.7792 178° South 425 787 9,876 -587 Descending Fort Worth Center
Fri 18:09:00 31.5714 -96.7894 196° South 417 772 9,571 -566 Descending Houston Center
Fri 18:10:03 31.4553 -96.8228 194° South 421 779 9,083 -380 Descending Houston Center
Fri 18:11:05 31.3767 -96.8994 220° Southwest 371 687 8,778 -383 Descending Houston Center
Fri 18:12:07 31.3219 -97.0036 238° Southwest 374 692 8,291 -693 Descending Houston Center
Fri 18:13:09 31.2572 -97.1203 237° Southwest 366 678 7,346 -767 Descending Houston Center
Fri 18:14:11 31.1944 -97.2117 231° Southwest 369 684 6,706 -737 Descending Houston Center
Fri 18:15:13 31.0928 -97.2547 200° South 384 711 5,822 -841 Descending Houston Center
Fri 18:16:15 30.9894 -97.2950 198° South 391 724 4,968 -841 Descending Houston Center
Fri 18:17:17 30.8722 -97.3400 198° South 393 727 4,084 -605 Descending Houston Center
Fri 18:18:19 30.7758 -97.3769 198° South 371 687 3,719 -380 Descending Houston Center
Fri 18:19:22 30.6867 -97.4261 205° Southwest 353 653 3,292 -351 Descending Houston Center
Fri 18:20:24 30.6094 -97.4792 211° Southwest 327 605 2,987 -265 Descending Houston Center
Fri 18:21:26 30.5469 -97.5364 218° Southwest 293 542 2,743 -280 Descending Houston Center
Fri 18:22:28 30.4733 -97.5656 199° South 299 554 2,408 -295 Descending Houston Center
Fri 18:23:30 30.3919 -97.5556 174° South 293 542 2,134 -369 Descending Houston Center
Fri 18:24:32 30.3039 -97.5447 174° South 275 509 1,646 -295 Descending Houston Center
Fri 18:25:34 30.2269 -97.5339 173° South 275 509 1,524 -59 Descending Houston Center
Fri 18:26:36 30.1606 -97.5267 175° South 246 455 1,524 -15 Level Houston Center
Fri 18:27:38 30.0978 -97.5442 194° South 234 433 1,494 -146 Descending Houston Center
Fri 18:28:41 30.0303 -97.5742 201° Southwest 231 428 1,219 -132 Descending Houston Center
Fri 18:29:43 29.9867 -97.6086 214° Southwest 212 393 1,219 -133 Level Houston Center
Fri 18:30:45 30.0306 -97.6497 321° Northwest 204 378 945 -265 Descending Houston Center
Fri 18:31:47 30.0856 -97.6539 356° North 200 370 671 -236 Descending Houston Center
Fri 18:32:49 30.1272 -97.6558 358° North 170 315 457 -148 Descending Houston Center
Fri 18:33:51 30.1619 -97.6572 358° North 161 298 366 -88 Descending Houston Center

Login

Don't have an account? Register now (free) for customized features, flight alerts, and more!